Time;durP1;ratioP1;P1;durP2;ratioP2;P2;SDS_P1;SDS_P2;PMS_P1;PMS_P2;Temp;Humidity;BMP_temperature;BMP_pressure;BME280_temperature;BME280_humidity;BME280_pressure;Samples;Min_cycle;Max_cycle;Signal;HPM_P1;HPM_P2
2022/07/15 00:00:19;;;;;;;1.75;0.63;;;;;;;18.59;58.61;100529.28;5111133;28;20044;-58
2022/07/15 00:02:50;;;;;;;3.83;0.80;;;;;;;18.58;58.84;100527.56;5105551;28;20044;-57
2022/07/15 00:05:20;;;;;;;2.88;0.60;;;;;;;18.56;58.82;100529.41;5110514;28;20112;-58
2022/07/15 00:07:54;;;;;;;2.90;0.80;;;;;;;18.55;58.96;100526.88;5109930;28;20048;-58
2022/07/15 00:10:25;;;;;;;2.38;0.60;;;;;;;18.55;58.96;100521.63;5108472;28;20126;-55
2022/07/15 00:12:57;;;;;;;2.08;0.70;;;;;;;18.52;59.14;100522.59;5107851;28;20054;-58
2022/07/15 00:15:27;;;;;;;4.05;1.55;;;;;;;18.50;59.06;100520.97;5104060;28;20044;-57
2022/07/15 00:18:01;;;;;;;2.28;0.63;;;;;;;18.46;59.22;100517.63;5110441;28;20052;-58
2022/07/15 00:20:33;;;;;;;2.55;0.80;;;;;;;18.46;59.24;100516.78;5110906;28;20108;-58
2022/07/15 00:23:10;;;;;;;1.67;0.65;;;;;;;18.44;59.18;100521.25;5108184;28;20052;-57
2022/07/15 00:25:40;;;;;;;2.35;0.50;;;;;;;18.45;59.27;100525.56;5099014;28;20048;-57
2022/07/15 00:28:10;;;;;;;3.35;0.90;;;;;;;18.43;59.29;100522.16;5099870;28;20121;-58
2022/07/15 00:30:40;;;;;;;1.75;0.60;;;;;;;18.42;59.43;100520.47;5100081;28;20468;-55
2022/07/15 00:33:10;;;;;;;1.83;0.65;;;;;;;18.41;59.54;100521.38;5106998;28;20051;-58
2022/07/15 00:35:42;;;;;;;1.23;0.50;;;;;;;18.40;59.27;100522.28;5110815;28;20058;-58
2022/07/15 00:38:18;;;;;;;2.45;0.60;;;;;;;18.36;59.36;100521.59;5099068;28;20048;-58
2022/07/15 00:40:53;;;;;;;2.67;0.60;;;;;;;18.34;59.41;100519.94;5099503;28;20131;-58
2022/07/15 00:43:21;;;;;;;0.82;0.50;;;;;;;18.29;59.40;100526.25;5099802;28;20052;-58
2022/07/15 00:45:48;;;;;;;1.02;0.40;;;;;;;18.24;59.52;100528.22;5109691;28;20059;-56
2022/07/15 00:48:15;;;;;;;3.08;0.50;;;;;;;18.22;59.51;100530.06;5111824;28;20135;-58
2022/07/15 00:50:42;;;;;;;2.33;0.40;;;;;;;18.18;59.65;100528.44;5112204;28;21126;-58
2022/07/15 00:53:16;;;;;;;1.42;0.52;;;;;;;18.14;59.69;100526.03;5109374;28;20052;-58
2022/07/15 00:55:53;;;;;;;1.45;0.28;;;;;;;18.13;59.94;100524.31;5109632;28;20043;-58
2022/07/15 00:58:24;;;;;;;1.38;0.45;;;;;;;18.07;59.96;100528.06;5112710;28;20040;-58
2022/07/15 01:01:00;;;;;;;0.73;0.32;;;;;;;18.05;60.22;100527.28;5109536;28;20058;-58
2022/07/15 01:03:31;;;;;;;2.55;0.40;;;;;;;18.02;60.26;100532.66;5111602;28;20051;-58
2022/07/15 01:06:06;;;;;;;5.75;0.47;;;;;;;18.00;60.60;100533.63;5104844;28;20453;-58
2022/07/15 01:08:36;;;;;;;2.83;0.70;;;;;;;17.96;60.68;100530.28;5105114;28;20040;-57
2022/07/15 01:11:05;;;;;;;2.92;0.40;;;;;;;17.93;60.75;100525.19;5104770;28;20051;-57
2022/07/15 01:13:35;;;;;;;3.17;0.40;;;;;;;17.89;60.91;100531.47;5100115;28;20186;-58
2022/07/15 01:16:04;;;;;;;7.15;0.47;;;;;;;17.85;61.07;100535.13;5102398;28;20108;-54
2022/07/15 01:18:33;;;;;;;0.93;0.40;;;;;;;17.82;61.29;100530.03;5103517;28;20051;-57
2022/07/15 01:21:10;;;;;;;3.05;0.63;;;;;;;17.82;61.49;100533.50;5102515;28;20054;-58
2022/07/15 01:23:42;;;;;;;2.15;0.50;;;;;;;17.78;61.26;100534.53;5103716;28;20048;-59
2022/07/15 01:26:11;;;;;;;1.05;0.50;;;;;;;17.76;61.63;100531.13;5103557;28;20055;-57
2022/07/15 01:28:41;;;;;;;1.02;0.60;;;;;;;17.76;61.42;100543.38;5101866;28;20043;-57
2022/07/15 01:31:08;;;;;;;2.75;0.40;;;;;;;17.72;61.60;100533.94;5100350;28;20055;-58
2022/07/15 01:33:38;;;;;;;1.52;0.57;;;;;;;17.71;61.79;100537.47;5104595;28;20105;-56
2022/07/15 01:36:28;;;;;;;1.80;0.55;;;;;;;17.67;61.83;100540.19;5102925;28;20127;-58
2022/07/15 01:38:58;;;;;;;1.55;0.50;;;;;;;17.65;62.21;100534.13;5101924;27;20117;-58
2022/07/15 01:41:28;;;;;;;0.70;0.40;;;;;;;17.65;62.02;100536.75;5103776;28;20060;-58
2022/07/15 01:43:58;;;;;;;2.28;0.50;;;;;;;17.64;62.01;100535.03;5104313;28;20376;-55
2022/07/15 01:52:01;;;;;;;2.05;0.60;;;;;;;17.62;62.35;100528.16;5099015;28;20058;-58
2022/07/15 01:54:31;;;;;;;1.25;0.70;;;;;;;17.58;62.45;100524.81;5099410;28;20126;-58
2022/07/15 01:57:00;;;;;;;4.30;0.73;;;;;;;17.56;62.55;100529.25;5102611;28;20052;-58
2022/07/15 01:59:28;;;;;;;4.20;0.57;;;;;;;17.54;62.90;100531.09;5101947;28;20080;-57
2022/07/15 02:02:00;;;;;;;1.95;0.60;;;;;;;17.54;63.07;100528.47;5097063;28;20079;-57
2022/07/15 02:07:13;;;;;;;1.65;0.75;;;;;;;17.45;63.26;100520.97;5099608;28;20058;-58
2022/07/15 02:09:42;;;;;;;0.70;0.30;;;;;;;17.38;63.46;100519.53;5101645;28;20735;-57
2022/07/15 02:12:12;;;;;;;1.30;0.40;;;;;;;17.32;63.56;100514.53;5101010;28;20071;-57
2022/07/15 02:14:39;;;;;;;3.03;0.50;;;;;;;17.27;63.78;100516.47;5100093;28;20061;-57
2022/07/15 02:17:08;;;;;;;2.20;0.55;;;;;;;17.24;63.86;100506.13;5101440;28;20055;-57
2022/07/15 02:19:39;;;;;;;2.00;0.52;;;;;;;17.24;64.14;100520.06;5098468;28;20052;-56
2022/07/15 02:22:09;;;;;;;1.13;0.47;;;;;;;17.23;63.97;100520.13;5095925;28;20472;-54
2022/07/15 02:24:45;;;;;;;1.67;0.50;;;;;;;17.22;64.23;100523.66;5101825;28;20059;-56
2022/07/15 02:27:26;;;;;;;4.30;0.68;;;;;;;17.19;64.37;100518.56;5098335;28;20419;-56
2022/07/15 02:29:54;;;;;;;3.35;0.60;;;;;;;17.15;64.46;100522.16;5101689;28;20047;-57
2022/07/15 02:32:25;;;;;;;1.45;0.50;;;;;;;17.13;64.21;100518.75;5102273;28;20112;-57
2022/07/15 02:34:54;;;;;;;3.35;0.68;;;;;;;17.11;64.68;100523.19;5096818;28;20139;-58
2022/07/15 02:37:22;;;;;;;1.40;0.63;;;;;;;17.08;64.83;100525.94;5092583;28;20079;-57
2022/07/15 02:40:04;;;;;;;2.10;0.70;;;;;;;17.08;64.71;100531.19;5103256;28;20058;-58
2022/07/15 02:42:43;;;;;;;3.47;0.60;;;;;;;17.04;64.85;100525.19;5101819;28;20048;-56
2022/07/15 02:45:14;;;;;;;2.38;0.82;;;;;;;17.01;64.88;100520.09;5102789;28;20059;-57
2022/07/15 02:47:44;;;;;;;2.55;0.80;;;;;;;16.99;64.76;100528.00;5100874;28;20052;-56
2022/07/15 02:50:15;;;;;;;1.20;0.60;;;;;;;16.95;64.78;100523.78;5101028;28;20052;-57
2022/07/15 02:52:51;;;;;;;2.15;0.60;;;;;;;16.94;65.26;100524.69;5100904;28;20052;-58
2022/07/15 02:55:32;;;;;;;2.75;0.77;;;;;;;16.93;65.00;100525.63;5102877;28;20063;-56
2022/07/15 02:58:03;;;;;;;3.05;1.05;;;;;;;16.94;65.39;100535.19;5100442;28;20051;-57
2022/07/15 03:03:13;;;;;;;1.02;0.50;;;;;;;16.93;65.15;100528.22;5090773;28;20066;-56
2022/07/15 03:05:43;;;;;;;2.03;0.40;;;;;;;16.92;65.49;100530.91;5090986;28;20536;-58
2022/07/15 03:08:13;;;;;;;4.80;0.80;;;;;;;16.93;65.45;100538.72;5103063;28;20054;-58
2022/07/15 03:10:43;;;;;;;2.22;0.45;;;;;;;16.96;65.52;100533.34;5100180;28;20685;-57
2022/07/15 03:13:19;;;;;;;2.40;0.50;;;;;;;16.95;65.56;100542.13;5102075;28;20052;-55
2022/07/15 03:18:29;;;;;;;1.95;0.57;;;;;;;16.91;65.51;100540.53;5103351;28;20388;-55
2022/07/15 03:20:57;;;;;;;1.35;0.68;;;;;;;16.92;65.11;100547.47;5105105;28;20055;-54
2022/07/15 03:23:26;;;;;;;2.80;0.68;;;;;;;16.91;65.26;100551.00;5104296;28;20063;-58
2022/07/15 03:25:58;;;;;;;1.85;0.60;;;;;;;16.90;65.31;100554.53;5106080;28;20477;-58
2022/07/15 03:28:25;;;;;;;4.47;0.80;;;;;;;16.90;65.16;100549.28;5102046;28;20040;-58
2022/07/15 03:30:55;;;;;;;2.50;0.47;;;;;;;16.89;65.13;100547.59;5103412;28;20044;-56
2022/07/15 03:33:22;;;;;;;3.55;0.40;;;;;;;16.89;65.13;100547.59;5105646;28;20056;-56
2022/07/15 03:35:51;;;;;;;2.55;0.70;;;;;;;16.92;65.08;100554.47;5104623;28;20058;-57
2022/07/15 03:38:21;;;;;;;2.38;0.47;;;;;;;16.99;64.99;100556.81;5104366;27;20039;-55
2022/07/15 03:40:51;;;;;;;1.52;0.40;;;;;;;17.08;64.63;100557.38;5103023;28;20040;-57
2022/07/15 03:43:26;;;;;;;1.58;0.57;;;;;;;17.20;64.50;100556.94;5104099;28;20040;-58
2022/07/15 03:45:57;;;;;;;1.45;0.50;;;;;;;17.28;64.28;100554.84;5105278;28;20062;-57
2022/07/15 03:48:23;;;;;;;3.13;0.32;;;;;;;17.40;63.93;100554.38;5103947;28;20194;-57
2022/07/15 03:50:54;;;;;;;3.05;0.40;;;;;;;17.51;63.74;100557.41;5099236;28;20483;-58
2022/07/15 03:53:23;;;;;;;1.67;0.47;;;;;;;17.65;62.99;100549.84;5101877;28;20075;-56
2022/07/15 03:55:53;;;;;;;1.92;0.55;;;;;;;17.81;62.81;100549.28;5102892;28;20048;-59
2022/07/15 03:58:36;;;;;;;1.48;0.50;;;;;;;17.98;62.24;100549.44;5103592;28;20063;-59
2022/07/15 04:01:05;;;;;;;9.23;0.80;;;;;;;18.13;61.90;100546.16;5109431;28;20059;-58
2022/07/15 04:03:33;;;;;;;0.80;0.40;;;;;;;18.31;61.33;100548.94;5107042;28;20053;-58
2022/07/15 04:06:00;;;;;;;1.27;0.63;;;;;;;18.42;60.91;100549.31;5101331;28;20499;-57
2022/07/15 04:08:28;;;;;;;2.10;0.50;;;;;;;18.58;60.50;100558.22;5105724;28;20059;-56
2022/07/15 04:10:57;;;;;;;1.13;0.45;;;;;;;18.76;59.85;100546.97;5106533;28;20074;-57
2022/07/15 04:13:27;;;;;;;3.17;0.52;;;;;;;18.87;59.46;100555.19;5103511;28;20051;-58
2022/07/15 04:15:57;;;;;;;3.95;0.60;;;;;;;19.02;59.05;100552.78;5105666;28;20053;-57
2022/07/15 04:18:25;;;;;;;1.27;0.43;;;;;;;19.11;58.46;100555.00;5099382;28;20040;-58
2022/07/15 04:20:53;;;;;;;2.58;0.88;;;;;;;19.15;58.28;100548.66;5100168;28;20071;-58
2022/07/15 04:23:24;;;;;;;2.00;0.57;;;;;;;19.18;58.07;100557.25;5104695;28;20056;-55
2022/07/15 04:25:55;;;;;;;2.92;0.50;;;;;;;19.17;58.02;100557.31;5097866;28;20166;-56
2022/07/15 04:28:27;;;;;;;1.65;0.38;;;;;;;19.13;57.97;100569.75;5103295;28;20059;-57
2022/07/15 04:30:57;;;;;;;0.68;0.43;;;;;;;19.06;57.86;100567.50;5103678;28;20056;-56
2022/07/15 04:33:24;;;;;;;1.55;0.40;;;;;;;18.98;58.08;100562.59;5108618;27;20059;-58
2022/07/15 04:35:55;;;;;;;5.18;0.82;;;;;;;18.94;58.21;100566.28;5097108;28;20061;-57
2022/07/15 04:38:24;;;;;;;2.83;0.40;;;;;;;18.87;58.29;100570.97;5102352;27;20048;-58
2022/07/15 04:40:55;;;;;;;3.22;0.50;;;;;;;18.81;58.57;100571.25;5103129;28;20479;-57
2022/07/15 04:43:25;;;;;;;1.15;0.40;;;;;;;18.78;58.47;100566.13;5103881;28;20052;-55
2022/07/15 04:45:55;;;;;;;1.05;0.40;;;;;;;18.75;58.67;100574.13;5104233;28;20442;-56
2022/07/15 04:51:16;;;;;;;8.23;1.30;;;;;;;18.72;58.63;100563.75;5093793;28;20059;-57
2022/07/15 04:53:47;;;;;;;7.45;0.90;;;;;;;18.69;58.65;100574.38;5094430;28;20052;-56
2022/07/15 04:56:15;;;;;;;6.68;0.75;;;;;;;18.69;58.73;100582.25;5100462;28;20063;-54
2022/07/15 04:58:45;;;;;;;3.38;0.50;;;;;;;18.68;58.62;100577.06;5105919;28;20044;-55
2022/07/15 05:01:13;;;;;;;2.35;0.57;;;;;;;18.64;58.68;100578.97;5105133;28;20389;-58
2022/07/15 05:03:43;;;;;;;4.47;0.82;;;;;;;18.59;58.92;100588.81;5104845;28;20127;-58
2022/07/15 05:06:11;;;;;;;21.75;1.70;;;;;;;18.71;58.59;100590.06;5094168;28;20048;-58
2022/07/15 05:08:41;;;;;;;2.53;0.55;;;;;;;18.88;58.35;100593.69;5093790;28;20040;-57
2022/07/15 05:11:10;;;;;;;3.15;0.43;;;;;;;19.12;57.76;100582.97;5096319;28;20048;-57
2022/07/15 05:13:41;;;;;;;3.35;0.55;;;;;;;19.41;57.14;100576.38;5104574;28;20358;-55
2022/07/15 05:16:21;;;;;;;4.93;0.75;;;;;;;19.72;56.46;100576.63;5094384;28;20056;-58
2022/07/15 05:18:57;;;;;;;12.77;0.95;;;;;;;20.07;55.48;100569.63;5102173;28;20047;-58
2022/07/15 05:21:25;;;;;;;7.07;0.68;;;;;;;20.40;54.83;100579.44;5100464;28;20059;-55
2022/07/15 05:23:53;;;;;;;6.75;0.60;;;;;;;20.73;54.02;100577.66;5105760;28;20051;-55
2022/07/15 05:26:23;;;;;;;2.90;0.70;;;;;;;21.04;53.07;100586.59;5101715;28;20048;-57
2022/07/15 05:29:01;;;;;;;6.28;1.08;;;;;;;21.19;52.58;100593.66;5103839;28;20055;-58
2022/07/15 05:31:30;;;;;;;4.78;0.60;;;;;;;21.32;52.10;100597.34;5103785;28;20087;-59
2022/07/15 05:34:03;;;;;;;7.10;0.80;;;;;;;21.41;51.74;100590.75;5107356;28;20060;-57
2022/07/15 05:36:31;;;;;;;8.95;0.90;;;;;;;21.56;51.06;100596.94;5103906;28;20559;-59
2022/07/15 05:39:00;;;;;;;6.10;1.60;;;;;;;21.69;51.06;100592.69;5108410;27;20101;-58
2022/07/15 05:41:31;;;;;;;7.03;1.10;;;;;;;21.90;50.38;100591.47;5099543;28;20629;-57
2022/07/15 05:44:01;;;;;;;4.72;0.77;;;;;;;22.11;49.67;100592.03;5104779;28;20552;-57
2022/07/15 05:46:28;;;;;;;5.40;0.65;;;;;;;22.30;49.25;100591.81;5105905;28;20055;-57
2022/07/15 05:48:57;;;;;;;2.15;0.52;;;;;;;22.48;48.75;100590.72;5104100;28;20417;-55
2022/07/15 05:51:26;;;;;;;5.03;0.75;;;;;;;22.72;48.20;100592.81;5102915;28;20130;-55
2022/07/15 05:54:06;;;;;;;1.65;0.57;;;;;;;22.95;47.67;100598.44;5109474;28;20058;-58
2022/07/15 05:56:37;;;;;;;8.05;1.05;;;;;;;23.12;47.16;100605.34;5098272;28;20056;-58
2022/07/15 05:59:13;;;;;;;6.32;0.80;;;;;;;23.18;46.88;100612.88;5099681;28;20403;-55
2022/07/15 06:01:43;;;;;;;25.33;1.75;;;;;;;23.29;46.70;100620.97;5099938;28;20055;-55
2022/07/15 06:04:10;;;;;;;7.53;1.33;;;;;;;23.38;46.27;100618.69;5102837;28;20448;-58
2022/07/15 06:06:43;;;;;;;9.88;1.13;;;;;;;23.44;45.87;100620.97;5105350;28;20058;-58
2022/07/15 06:09:14;;;;;;;12.27;1.02;;;;;;;23.53;45.80;100620.41;5104355;28;20052;-58
2022/07/15 06:11:44;;;;;;;5.85;0.82;;;;;;;23.70;45.61;100606.09;5101893;28;20441;-58
2022/07/15 06:14:14;;;;;;;19.52;2.08;;;;;;;23.83;45.29;100615.78;5103195;28;20066;-58
2022/07/15 06:16:41;;;;;;;6.40;1.05;;;;;;;23.91;44.98;100617.94;5100421;28;20067;-57
2022/07/15 06:19:12;;;;;;;6.15;0.80;;;;;;;23.88;45.09;100618.97;5103548;28;20133;-58
2022/07/15 06:21:54;;;;;;;5.35;0.75;;;;;;;23.82;44.28;100614.09;5104876;28;20108;-55
2022/07/15 06:24:24;;;;;;;8.52;1.13;;;;;;;23.59;44.96;100622.69;5102540;28;20051;-57
2022/07/15 06:26:53;;;;;;;28.77;1.80;;;;;;;23.28;45.46;100629.84;5103846;28;20139;-55
2022/07/15 06:29:24;;;;;;;7.90;0.80;;;;;;;22.98;46.42;100632.63;5102195;28;20070;-53
2022/07/15 06:31:54;;;;;;;4.95;0.80;;;;;;;22.68;47.51;100640.56;5098908;28;20048;-56
2022/07/15 06:34:22;;;;;;;6.93;0.70;;;;;;;22.34;48.77;100639.06;5102236;28;20056;-56
2022/07/15 06:37:05;;;;;;;4.00;0.88;;;;;;;22.01;50.33;100644.50;5102092;28;20047;-57
2022/07/15 06:39:35;;;;;;;2.40;0.60;;;;;;;21.75;51.63;100647.72;5107408;27;20056;-59
2022/07/15 06:42:06;;;;;;;2.30;1.17;;;;;;;21.53;52.61;100648.09;5105911;28;20044;-57
2022/07/15 06:44:36;;;;;;;3.75;0.73;;;;;;;21.32;52.99;100639.53;5104549;28;20512;-58
2022/07/15 06:47:06;;;;;;;1.75;0.50;;;;;;;21.08;53.49;100636.41;5101377;28;20052;-57
2022/07/15 06:49:37;;;;;;;2.90;0.60;;;;;;;20.90;53.73;100637.41;5097455;28;20059;-56
2022/07/15 06:52:08;;;;;;;2.70;0.40;;;;;;;20.76;53.77;100640.72;5103259;28;20116;-55
2022/07/15 06:54:38;;;;;;;2.08;0.50;;;;;;;20.64;54.01;100636.09;5102900;28;20043;-56
2022/07/15 06:57:08;;;;;;;3.45;0.77;;;;;;;20.65;53.77;100629.91;5104652;28;20185;-56
2022/07/15 06:59:37;;;;;;;4.43;1.08;;;;;;;20.77;53.47;100626.63;5105486;28;20040;-56
2022/07/15 07:02:07;;;;;;;5.82;0.90;;;;;;;20.97;52.92;100627.38;5098519;28;20059;-53
2022/07/15 07:04:37;;;;;;;2.22;0.68;;;;;;;21.26;52.37;100633.75;5105171;28;20055;-56
2022/07/15 07:07:17;;;;;;;3.70;0.88;;;;;;;21.55;51.35;100633.03;5099732;28;20506;-56
2022/07/15 07:09:46;;;;;;;3.72;0.70;;;;;;;21.81;50.59;100636.81;5101785;28;20047;-58
2022/07/15 07:12:17;;;;;;;5.53;0.80;;;;;;;22.15;49.43;100637.59;5102027;28;20075;-57
2022/07/15 07:14:47;;;;;;;5.30;0.80;;;;;;;22.45;49.09;100649.03;5101470;28;20131;-58
2022/07/15 07:17:15;;;;;;;3.05;0.63;;;;;;;22.80;48.06;100639.00;5102473;28;20376;-58
2022/07/15 07:19:44;;;;;;;7.00;1.10;;;;;;;23.10;47.54;100641.59;5101202;28;20063;-58
2022/07/15 07:22:18;;;;;;;4.50;0.70;;;;;;;23.48;46.24;100644.50;5099718;28;20051;-58
2022/07/15 07:24:48;;;;;;;26.02;2.85;;;;;;;23.69;45.75;100650.25;5102078;28;20051;-58
2022/07/15 07:27:18;;;;;;;4.97;0.82;;;;;;;23.87;44.81;100648.19;5103793;28;20052;-58
2022/07/15 07:29:45;;;;;;;5.20;0.80;;;;;;;23.92;44.40;100636.34;5098546;28;20477;-57
2022/07/15 07:32:15;;;;;;;30.95;1.58;;;;;;;24.12;43.50;100642.16;5106671;28;20483;-58
2022/07/15 07:34:41;;;;;;;3.70;0.68;;;;;;;24.23;42.94;100650.25;5104844;28;20538;-58
2022/07/15 07:37:12;;;;;;;7.13;0.88;;;;;;;24.38;42.53;100649.25;5100128;28;20055;-58
2022/07/15 07:39:45;;;;;;;3.13;0.57;;;;;;;24.51;41.94;100652.78;5111186;28;20044;-58
2022/07/15 07:42:15;;;;;;;1.83;0.70;;;;;;;24.60;42.07;100659.25;5101972;28;20055;-58
2022/07/15 07:44:45;;;;;;;9.15;0.93;;;;;;;24.74;41.79;100656.53;5103563;28;20052;-57
2022/07/15 07:47:16;;;;;;;4.45;0.85;;;;;;;24.70;41.88;100662.97;5097746;28;20365;-56
2022/07/15 07:49:44;;;;;;;6.38;0.98;;;;;;;24.61;41.83;100665.41;5101012;28;20084;-57
2022/07/15 07:52:18;;;;;;;10.40;0.93;;;;;;;24.41;41.90;100654.34;5102394;28;20084;-58
2022/07/15 07:54:48;;;;;;;3.22;0.60;;;;;;;24.10;42.11;100667.91;5104129;28;20051;-56
2022/07/15 07:57:24;;;;;;;5.70;0.80;;;;;;;23.83;42.60;100660.78;5096891;28;20063;-58
2022/07/15 07:59:55;;;;;;;3.83;0.70;;;;;;;23.61;43.10;100684.28;5104020;28;20383;-56
2022/07/15 08:02:22;;;;;;;4.28;0.70;;;;;;;23.41;43.61;100695.22;5100935;28;20142;-55
2022/07/15 08:04:50;;;;;;;0.80;0.40;;;;;;;23.32;44.01;100677.28;5101518;28;20513;-56
2022/07/15 08:07:26;;;;;;;3.22;0.73;;;;;;;23.21;44.24;100688.53;5104129;28;20052;-55
2022/07/15 08:10:11;;;;;;;9.70;1.08;;;;;;;23.12;44.25;100694.38;5106342;28;20048;-55
2022/07/15 08:12:39;;;;;;;3.92;0.50;;;;;;;23.07;44.69;100701.75;5105118;28;20166;-58
2022/07/15 08:15:10;;;;;;;6.35;0.65;;;;;;;23.01;44.95;100699.47;5105784;28;20058;-58
2022/07/15 08:17:37;;;;;;;2.38;0.57;;;;;;;22.91;45.23;100709.75;5102188;28;20080;-59
2022/07/15 08:20:13;;;;;;;9.65;0.75;;;;;;;22.98;44.92;100700.50;5100935;28;20051;-58
2022/07/15 08:22:44;;;;;;;2.55;0.70;;;;;;;23.01;45.12;100708.25;5103684;28;20048;-56
2022/07/15 08:25:12;;;;;;;6.60;0.55;;;;;;;23.26;44.87;100705.78;5104676;28;20044;-58
2022/07/15 08:27:40;;;;;;;4.22;0.75;;;;;;;23.55;44.39;100706.69;5104875;28;20483;-58
2022/07/15 08:30:10;;;;;;;2.42;0.52;;;;;;;23.80;43.86;100708.63;5103394;28;20139;-59
2022/07/15 08:32:41;;;;;;;4.47;0.60;;;;;;;23.89;43.48;100721.25;5103341;28;20461;-55
2022/07/15 08:35:12;;;;;;;2.22;0.70;;;;;;;23.91;43.55;100714.06;5105949;28;20100;-56
2022/07/15 08:37:39;;;;;;;2.22;0.63;;;;;;;23.91;43.56;100719.38;5105314;27;20048;-59
2022/07/15 08:40:16;;;;;;;3.88;0.88;;;;;;;23.88;43.46;100719.56;5103630;28;20356;-55
2022/07/15 08:42:47;;;;;;;5.43;0.60;;;;;;;23.79;43.49;100720.16;5103643;28;20589;-59
2022/07/15 08:45:17;;;;;;;2.00;0.57;;;;;;;23.66;43.29;100719.25;5108113;28;20058;-58
2022/07/15 08:47:49;;;;;;;4.80;0.98;;;;;;;23.47;43.51;100723.97;5103887;28;20152;-57
2022/07/15 08:50:26;;;;;;;8.70;0.50;;;;;;;23.26;43.60;100726.94;5102510;28;20059;-59
2022/07/15 08:52:57;;;;;;;3.08;0.63;;;;;;;23.08;43.96;100717.50;5104261;28;20062;-58
2022/07/15 08:55:26;;;;;;;3.42;0.90;;;;;;;22.95;44.13;100722.69;5103610;28;20047;-58
2022/07/15 08:58:01;;;;;;;2.08;0.90;;;;;;;22.88;44.14;100731.03;5103515;28;20044;-58
2022/07/15 09:00:38;;;;;;;8.00;1.30;;;;;;;22.80;44.68;100738.53;5105148;28;20059;-55
2022/07/15 09:03:09;;;;;;;2.20;1.02;;;;;;;22.65;45.72;100751.72;5105237;28;20093;-59
2022/07/15 09:05:39;;;;;;;8.80;1.20;;;;;;;22.45;47.40;100749.38;5104893;28;20059;-57
2022/07/15 09:08:10;;;;;;;2.17;0.57;;;;;;;22.26;48.35;100754.00;5106041;28;20051;-57
2022/07/15 09:11:08;;;;;;;2.58;0.68;;;;;;;22.05;49.46;100753.41;5101905;28;20047;-59
2022/07/15 09:13:43;;;;;;;3.70;0.95;;;;;;;21.86;49.56;100750.91;5105149;28;20345;-55
2022/07/15 09:16:13;;;;;;;4.20;1.10;;;;;;;21.76;49.87;100743.56;5103645;28;20062;-58
2022/07/15 09:18:45;;;;;;;6.25;1.15;;;;;;;21.73;50.32;100744.56;5100425;28;20051;-56
2022/07/15 09:21:16;;;;;;;3.08;0.90;;;;;;;21.77;50.19;100746.13;5099646;28;20143;-56
2022/07/15 09:23:43;;;;;;;2.67;0.70;;;;;;;21.86;49.69;100737.72;5104016;28;20048;-59
2022/07/15 09:26:26;;;;;;;4.38;0.70;;;;;;;22.02;49.69;100743.84;5106198;28;20097;-58
2022/07/15 09:33:34;;;;;;;3.15;0.80;;;;;;;22.21;49.07;100735.78;5104827;28;20485;-58
2022/07/15 09:35:00;;;;;;;5.20;1.00;;;;;;;22.60;48.36;100735.28;5104188;28;20055;-58
2022/07/15 09:37:29;;;;;;;11.55;0.90;;;;;;;22.84;47.87;100734.81;5109690;27;20051;-59
2022/07/15 09:40:00;;;;;;;3.20;0.85;;;;;;;23.03;47.15;100730.16;5105398;27;20054;-58
2022/07/15 09:42:32;;;;;;;1.63;0.60;;;;;;;23.19;46.93;100730.91;5099768;28;20052;-58
2022/07/15 09:45:23;;;;;;;5.20;1.35;;;;;;;23.30;45.94;100739.03;5105659;28;20595;-55
2022/07/15 09:48:12;;;;;;;3.25;0.90;;;;;;;23.30;45.58;100728.47;5103294;28;20142;-58
2022/07/15 09:50:48;;;;;;;4.18;0.80;;;;;;;23.24;45.97;100738.56;5103109;28;20055;-58
2022/07/15 09:53:18;;;;;;;5.82;1.23;;;;;;;23.14;46.02;100738.28;5100367;28;20101;-58
2022/07/15 09:55:48;;;;;;;6.35;0.80;;;;;;;23.00;45.81;100740.91;5106742;28;20067;-59
2022/07/15 09:58:25;;;;;;;8.40;0.80;;;;;;;22.86;46.16;100748.78;5100868;28;20135;-58
2022/07/15 10:00:57;;;;;;;6.57;1.10;;;;;;;22.75;46.37;100745.91;5106876;28;20097;-57
2022/07/15 10:03:24;;;;;;;2.53;0.80;;;;;;;22.74;46.73;100750.31;5102998;28;20069;-57
2022/07/15 10:05:53;;;;;;;4.05;0.73;;;;;;;22.75;46.64;100757.31;5106166;28;20431;-59
2022/07/15 10:08:30;;;;;;;8.15;1.20;;;;;;;22.76;46.46;100755.53;5108130;28;20779;-59
2022/07/15 10:10:59;;;;;;;5.95;0.90;;;;;;;22.75;46.49;100746.75;5107843;28;20047;-58
2022/07/15 10:14:19;;;;;;;9.60;1.38;;;;;;;22.85;46.40;100744.44;5107406;28;20048;-57
2022/07/15 10:17:32;;;;;;;9.77;0.80;;;;;;;22.85;46.58;100760.31;5107997;28;20065;-58
2022/07/15 10:20:40;;;;;;;4.40;0.63;;;;;;;23.01;46.41;100758.47;5106121;28;20059;-58
2022/07/15 10:23:20;;;;;;;6.03;0.90;;;;;;;23.18;45.92;100763.59;5021647;28;20133;-59
2022/07/15 10:26:03;;;;;;;7.72;0.60;;;;;;;23.28;45.94;100772.66;5028530;28;20129;-58
2022/07/15 10:28:50;;;;;;;8.90;1.00;;;;;;;23.38;45.77;100772.09;5100224;28;20052;-57
2022/07/15 10:31:26;;;;;;;17.05;1.70;;;;;;;23.41;45.69;100771.91;5101623;28;20096;-58
2022/07/15 10:34:32;;;;;;;5.28;1.00;;;;;;;23.47;45.58;100772.44;5103911;28;20048;-58
2022/07/15 10:37:06;;;;;;;9.13;1.10;;;;;;;23.54;45.81;100773.75;5019915;28;20057;-59
2022/07/15 10:40:09;;;;;;;4.38;0.95;;;;;;;23.62;45.29;100764.50;5101516;27;20364;-59
2022/07/15 10:43:04;;;;;;;10.73;0.90;;;;;;;23.77;44.48;100775.00;5023514;28;20510;-57
2022/07/15 10:45:31;;;;;;;34.20;2.45;;;;;;;23.86;44.38;100763.81;5073260;28;20058;-59
2022/07/15 10:48:36;;;;;;;122.63;9.95;;;;;;;23.96;44.20;100772.06;5102211;28;20132;-58
2022/07/15 10:51:07;;;;;;;16.30;2.63;;;;;;;24.01;44.07;100766.47;5106953;28;20131;-58
2022/07/15 10:53:43;;;;;;;8.30;1.00;;;;;;;23.99;43.56;100784.25;5099322;28;20066;-58
2022/07/15 10:56:35;;;;;;;9.43;0.88;;;;;;;24.00;43.46;100780.66;5104958;28;20044;-56
2022/07/15 10:59:10;;;;;;;2.22;0.73;;;;;;;24.03;43.79;100781.31;5094372;28;20052;-57
2022/07/15 11:01:37;;;;;;;5.68;0.90;;;;;;;24.05;43.93;100757.38;5093018;28;20047;-59
2022/07/15 11:04:17;;;;;;;12.02;1.17;;;;;;;24.12;43.52;100774.56;5093453;28;20059;-56
2022/07/15 11:07:36;;;;;;;3.90;0.93;;;;;;;24.18;43.08;100775.03;5098914;28;20117;-58
2022/07/15 11:10:22;;;;;;;8.13;0.95;;;;;;;24.29;43.38;100781.47;5086743;28;20048;-57
2022/07/15 11:13:07;;;;;;;4.22;0.77;;;;;;;24.41;43.24;100786.81;5101499;28;20056;-58
2022/07/15 11:15:39;;;;;;;4.60;0.90;;;;;;;24.49;43.25;100779.22;5105875;28;20157;-58
2022/07/15 11:18:09;;;;;;;5.57;0.75;;;;;;;24.49;43.06;100787.19;5103196;28;20456;-58
2022/07/15 11:20:42;;;;;;;3.83;0.68;;;;;;;24.46;44.29;100799.78;5106592;28;20047;-58
2022/07/15 11:23:16;;;;;;;3.78;0.65;;;;;;;24.33;46.24;100814.75;5103893;28;20052;-58
2022/07/15 11:25:45;;;;;;;4.30;0.63;;;;;;;24.13;46.94;100808.06;5106114;28;20058;-55
2022/07/15 11:28:15;;;;;;;5.20;0.70;;;;;;;23.96;47.33;100800.31;5101342;28;20059;-59
2022/07/15 11:30:53;;;;;;;3.30;0.80;;;;;;;23.82;47.23;100804.66;5104389;28;20048;-59
2022/07/15 11:33:25;;;;;;;2.40;0.90;;;;;;;23.69;47.63;100801.09;5103714;28;20047;-59
2022/07/15 11:36:03;;;;;;;1.70;0.60;;;;;;;23.64;47.75;100795.22;5103758;28;20063;-57
2022/07/15 11:38:40;;;;;;;2.95;0.90;;;;;;;23.62;47.84;100791.81;5114824;28;20214;-59
2022/07/15 11:46:54;;;;;;;8.88;0.90;;;;;;;23.65;47.44;100796.94;5116578;28;20054;-58
2022/07/15 11:49:31;;;;;;;10.07;1.15;;;;;;;23.73;47.02;100802.59;5103541;28;20121;-58
2022/07/15 11:52:01;;;;;;;6.90;1.38;;;;;;;23.82;46.86;100794.06;5108745;28;20048;-59
2022/07/15 11:54:32;;;;;;;5.78;1.13;;;;;;;23.89;46.58;100800.69;5103387;28;20048;-58
2022/07/15 11:57:04;;;;;;;3.67;1.00;;;;;;;23.92;46.44;100813.72;5107894;28;20047;-59
2022/07/15 11:59:33;;;;;;;2.50;0.77;;;;;;;23.83;48.44;100813.47;5104754;28;20124;-59
2022/07/15 12:02:11;;;;;;;3.53;0.70;;;;;;;23.73;49.09;100814.97;5101300;28;20044;-58
2022/07/15 12:04:41;;;;;;;3.10;0.80;;;;;;;23.61;49.11;100813.94;5106485;27;20052;-58
2022/07/15 12:07:11;;;;;;;2.15;0.73;;;;;;;23.51;49.58;100804.84;5106010;28;20117;-56
2022/07/15 12:09:56;;;;;;;3.03;0.70;;;;;;;23.45;49.82;100815.78;5102756;28;20051;-58
2022/07/15 12:12:32;;;;;;;5.10;0.70;;;;;;;23.40;49.84;100817.84;5106183;28;20127;-56
2022/07/15 12:15:01;;;;;;;3.42;0.60;;;;;;;23.38;49.42;100819.72;5109063;28;20056;-57